Skip Navigation Links Skip Navigation Links

Current Weather

Rock Co, Janesville, Wis.

For information only: do not use for flight planning or navigation.
Latest weather
Observation time Sunday, October 13, 2019 5:45 PM CDT
Local time Sunday, October 13, 2019 6:35 PM CDT
Flight conditions Visual Meteorological Conditions
Winds
Wind direction West-Northwest (290°)
Wind speed 12 mph
Visibility 10 mi.
Sky condition
Ceiling 3,500 ft. broken clouds
Cloud layer broken clouds 3,500 ft.
Cloud layer broken clouds 8,000 ft.
Temperature 45°F
Dewpoint 34°F
Altimeter 29.88 in.Hg
Derived measurements
Relative humidity 66%
Wind chill 39°F
Density altitude -8 ft.
METAR KJVL 132245Z 29010KT 10SM BKN035 BKN080 07/01 A2988

Settings

Location code

InnerDrive.Weather 4.0.6770.0 Release CLR 4.0.30319.42000
Copyright ©2018 Inner Drive Technology. All rights reserved. Portions Copyright ©1986-2018 David Braverman.

Find weather

Site navigation


Skip Navigation Links

Place info

Page info

PayPal - The safer, easier way to pay online!

Return home.

Copyright ©2019 Inner Drive Technology. Purveyors of fine, hand-crafted computer software. Page printed 2019-10-13T23:35:52 UTC.